< < Back
Terminal Aerodrome Forecast


Current Version              Previous Versions:   1  2  3  4  5  6  7  8  9  

Terminal Aerodrome Forecast

046
FTUS44 KHUN 091124
TAFHSV
TAF
KHSV 091124Z 0912/1012 31012G22KT P6SM -SHSN OVC030
     FM100200 30010KT P6SM OVC025
     FM100700 30006KT P6SM SCT030=

Latest METAR

384
SAUS80 KWBC 092000 RRB
MTRHSV
METAR KHSV 091953Z 30009KT 10SM SCT033 SCT040 OVC085 00/M08 A2994 RMK
AO2 SNE53 SLP142 P0000 T00001078


USA.gov is the U.S. government's official web portal to all federal, state and local government web resources and services.